Nearby METAR Reports

KLNK - Lincoln, Nebraska, USA
Distance from station: WNW 8mi, 13km
Updated: Sat, 13-Aug-2022 6:54pm CDT
Few Clouds
Few Clouds
 Wind from NNE
Wind: NNE 14 mph , 22 km/h
Temperature: 86°F , 30°C
Heat Index: 91°F , 33°C
Dew Point: 70°F , 21°C
Humidity: 59%
Barometer: 29.99 inHg , 1015.6 hPa
Clouds: Few Clouds
Visibility: 10 miles , 16 km
Cloud details: Few Clouds 11000 ft
2022/08/13 23:54 KLNK 132354Z 03012KT 10SM FEW110 30/21 A2999 RMK AO2 SLP144 T03000211 10333 20300 53001
KAHQ - Wahoo, Nebraska, USA
Distance from station: N 31mi, 49km
Updated: Sat, 13-Aug-2022 7:35pm CDT
Clear
Clear
 Wind from N
Wind: N 8 mph , 13 km/h
Temperature: 79°F , 26°C
Dew Point: 68°F , 20°C
Humidity: 70%
Barometer: 30.01 inHg , 1016.3 hPa
Clouds: Clear
Visibility: 10 miles , 16 km
2022/08/14 00:35 KAHQ 140035Z AUTO 01007KT 10SM CLR 26/20 A3001 RMK AO2 T02620202
 
KBIE - Beatrice Municip, Nebraska, USA
Distance from station: S 36mi, 57km
Updated: Sat, 13-Aug-2022 7:15pm CDT
Clear
Clear
 Wind from NNE
Wind: NNE 12 mph , 19 km/h
Temperature: 88°F , 31°C
Heat Index: 95°F , 35°C
Dew Point: 72°F , 22°C
Humidity: 59%
Barometer: 29.96 inHg , 1014.6 hPa
Clouds: Clear
Visibility: 10 miles , 16 km
2022/08/14 00:15 KBIE 140015Z AUTO 02010KT 10SM CLR 31/22 A2996 RMK AO2 T03130220
KMLE - Omaha/Millard, Nebraska, USA
Distance from station: NE 39mi, 63km
Updated: Sat, 13-Aug-2022 7:15pm CDT
Clear
Clear
 Wind from NNW
Wind: NNW 7 mph , 11 km/h
Temperature: 79°F , 26°C
Dew Point: 66°F , 19°C
Humidity: 65%
Barometer: 30.00 inHg , 1015.9 hPa
Clouds: Clear
Visibility: 10 miles , 16 km
2022/08/14 00:15 KMLE 140015Z AUTO 34006KT 10SM CLR 26/19 A3000 RMK AO2 T02630193
 
KPMV - Plattsmouth Muni, Nebraska, USA
Distance from station: ENE 39mi, 63km
Updated: Sat, 13-Aug-2022 7:15pm CDT
Clear
Clear
 Wind from N
Wind: N 7 mph , 11 km/h, Gust: 16 mph , 26 km/h
Temperature: 81°F , 27°C
Heat Index: 85°F , 29°C
Dew Point: 70°F , 21°C
Humidity: 70%
Barometer: 29.99 inHg , 1015.6 hPa
Clouds: Clear
Visibility: 10 miles , 16 km
2022/08/14 00:15 KPMV 140015Z AUTO 36006G14KT 10SM CLR 27/21 A2999 RMK AO2 T02730207
KAFK - Nebraska City, Nebraska, USA
Distance from station: ESE 43mi, 69km
Updated: Sat, 13-Aug-2022 7:35pm CDT
Clear
Clear
 Wind from NNE
Wind: NNE 12 mph , 19 km/h
Temperature: 82°F , 28°C
Heat Index: 86°F , 30°C
Dew Point: 72°F , 22°C
Humidity: 70%
Barometer: 29.97 inHg , 1014.9 hPa
Clouds: Clear
Visibility: 10 miles , 16 km
2022/08/14 00:35 KAFK 140035Z AUTO 03010KT 10SM CLR 28/22 A2997 RMK AO2 T02810220
 
KOFF - Offutt Afb/Belle, Nebraska, USA
Distance from station: ENE 44mi, 70km
Updated: Sat, 13-Aug-2022 6:56pm CDT
Few Clouds
Few Clouds
 Wind from N
Wind: N 15 mph , 24 km/h, Gust: 18 mph , 30 km/h
Temperature: 82°F , 28°C
Heat Index: 85°F , 29°C
Dew Point: 68°F , 20°C
Humidity: 62%
Barometer: 30.00 inHg , 1015.9 hPa
Clouds: Few Clouds
Visibility: 10 miles , 16 km
Cloud details: Few Clouds 18000 ft
2022/08/13 23:56 KOFF 132356Z 35013G16KT 10SM FEW180 28/20 A3000 RMK AO2A SLP155 T02780198 10323 20278 53006 PWINO PNO FZRANO TSNO VISNO RWY12 CHINO RWY12 $
KFET - Fremont Muni Arp, Nebraska, USA
Distance from station: N 46mi, 74km
Updated: Sat, 13-Aug-2022 7:15pm CDT
Clear
Clear
 Wind from N
Wind: N 9 mph , 15 km/h
Temperature: 81°F , 27°C
Heat Index: 84°F , 29°C
Dew Point: 68°F , 20°C
Humidity: 66%
Barometer: 30.01 inHg , 1016.3 hPa
Clouds: Clear
Visibility: 10 miles , 16 km
2022/08/14 00:15 KFET 140015Z AUTO 36008KT 10SM CLR 27/20 A3001 RMK AO2 T02680195
 
KBTA - Blair Muni, Nebraska, USA
Distance from station: NNE 51mi, 82km
Updated: Sat, 13-Aug-2022 7:15pm CDT
Clear
Clear
 Wind from N
Wind: N 10 mph , 17 km/h
Temperature: 77°F , 25°C
Dew Point: 66°F , 19°C
Humidity: 69%
Barometer: 30.01 inHg , 1016.3 hPa
Clouds: Clear
Visibility: 10 miles , 16 km
2022/08/14 00:15 KBTA 140015Z AUTO 36009KT 10SM CLR 25/19 A3001 RMK AO2 T02520190
KJYR - York, Nebraska, USA
Distance from station: W 52mi, 84km
Updated: Sat, 13-Aug-2022 7:15pm CDT
Clear
Clear
 Wind from NE
Wind: NE 12 mph , 19 km/h
Temperature: 81°F , 27°C
Heat Index: 85°F , 29°C
Dew Point: 70°F , 21°C
Humidity: 70%
Barometer: 30.01 inHg , 1016.3 hPa
Clouds: Clear
Visibility: 10 miles , 16 km
2022/08/14 00:15 KJYR 140015Z AUTO 05010KT 10SM CLR 27/21 A3001 RMK AO2
 
KOMA - Omaha/Eppley, Nebraska, USA
Distance from station: NE 53mi, 85km
Updated: Sat, 13-Aug-2022 6:52pm CDT
Mostly Cloudy
Mostly Cloudy
 Wind from N
Wind: N 12 mph , 19 km/h
Temperature: 81°F , 27°C
Heat Index: 83°F , 28°C
Dew Point: 66°F , 19°C
Humidity: 62%
Barometer: 29.99 inHg , 1015.6 hPa
Clouds: Mostly Cloudy
Visibility: 10 miles , 16 km
Cloud details: Few Clouds 15000 ft
Few Clouds 17000 ft
Mostly Cloudy 25000 ft
2022/08/13 23:52 KOMA 132352Z 35010KT 10SM FEW150 FEW170 BKN250 27/19 A2999 RMK AO2 SLP147 T02670194 10311 20267 53005
KOLU - Columbus Muni, Nebraska, USA
Distance from station: NW 58mi, 93km
Updated: Sat, 13-Aug-2022 6:56pm CDT
Clear
Clear
 Wind from NNE
Wind: NNE 9 mph , 15 km/h
Temperature: 82°F , 28°C
Heat Index: 86°F , 30°C
Dew Point: 70°F , 21°C
Humidity: 66%
Barometer: 30.03 inHg , 1016.9 hPa
Clouds: Clear
Visibility: 10 miles , 16 km
2022/08/13 23:56 KOLU 132356Z AUTO 02008KT 10SM CLR 28/21 A3003 RMK AO2 SLP158 T02780211 10306 20261 58001